sensor_id;sensor_type;location;lat;lon;timestamp;P1;durP1;ratioP1;P2;durP2;ratioP2
66542;SDS011;53395;37.360;-122.046;2023-07-02T00:04:11;4.85;;;2.67;;
66542;SDS011;53395;37.360;-122.046;2023-07-02T00:07:00;5.07;;;3.20;;
66542;SDS011;53395;37.360;-122.046;2023-07-02T00:09:44;5.22;;;2.75;;
66542;SDS011;53395;37.360;-122.046;2023-07-02T00:12:29;5.43;;;2.38;;
66542;SDS011;53395;37.360;-122.046;2023-07-02T00:17:57;5.78;;;2.53;;
66542;SDS011;53395;37.360;-122.046;2023-07-02T00:20:42;5.05;;;2.70;;
66542;SDS011;53395;37.360;-122.046;2023-07-02T00:23:27;7.47;;;2.72;;
66542;SDS011;53395;37.360;-122.046;2023-07-02T00:28:55;6.30;;;2.72;;
66542;SDS011;53395;37.360;-122.046;2023-07-02T00:31:40;5.50;;;2.83;;
66542;SDS011;53395;37.360;-122.046;2023-07-02T00:34:24;9.18;;;3.17;;
66542;SDS011;53395;37.360;-122.046;2023-07-02T00:37:10;6.55;;;2.92;;
66542;SDS011;53395;37.360;-122.046;2023-07-02T00:39:54;6.60;;;2.80;;
66542;SDS011;53395;37.360;-122.046;2023-07-02T00:45:23;9.45;;;3.20;;
66542;SDS011;53395;37.360;-122.046;2023-07-02T00:48:10;6.18;;;3.17;;
66542;SDS011;53395;37.360;-122.046;2023-07-02T00:53:38;7.93;;;3.05;;
66542;SDS011;53395;37.360;-122.046;2023-07-02T00:56:23;6.82;;;2.78;;
66542;SDS011;53395;37.360;-122.046;2023-07-02T00:59:08;6.57;;;2.95;;
66542;SDS011;53395;37.360;-122.046;2023-07-02T01:01:53;9.18;;;3.10;;
66542;SDS011;53395;37.360;-122.046;2023-07-02T01:07:21;8.90;;;3.28;;
66542;SDS011;53395;37.360;-122.046;2023-07-02T01:12:50;9.20;;;3.53;;
66542;SDS011;53395;37.360;-122.046;2023-07-02T01:15:35;12.13;;;3.90;;
66542;SDS011;53395;37.360;-122.046;2023-07-02T01:18:20;11.50;;;3.72;;
66542;SDS011;53395;37.360;-122.046;2023-07-02T01:21:05;9.43;;;3.90;;
66542;SDS011;53395;37.360;-122.046;2023-07-02T01:23:52;10.48;;;4.60;;
66542;SDS011;53395;37.360;-122.046;2023-07-02T01:26:37;9.75;;;3.50;;
66542;SDS011;53395;37.360;-122.046;2023-07-02T01:29:21;11.95;;;3.78;;
66542;SDS011;53395;37.360;-122.046;2023-07-02T01:32:06;9.50;;;3.70;;
66542;SDS011;53395;37.360;-122.046;2023-07-02T01:37:37;10.02;;;4.20;;
66542;SDS011;53395;37.360;-122.046;2023-07-02T01:40:22;10.63;;;3.72;;
66542;SDS011;53395;37.360;-122.046;2023-07-02T01:45:50;11.90;;;4.47;;
66542;SDS011;53395;37.360;-122.046;2023-07-02T01:51:19;10.52;;;3.88;;
66542;SDS011;53395;37.360;-122.046;2023-07-02T01:56:47;12.90;;;4.35;;
66542;SDS011;53395;37.360;-122.046;2023-07-02T01:59:32;12.52;;;4.80;;
66542;SDS011;53395;37.360;-122.046;2023-07-02T02:02:17;12.65;;;4.30;;
66542;SDS011;53395;37.360;-122.046;2023-07-02T02:05:01;14.18;;;4.32;;
66542;SDS011;53395;37.360;-122.046;2023-07-02T02:07:45;13.55;;;4.10;;
66542;SDS011;53395;37.360;-122.046;2023-07-02T02:10:30;11.77;;;4.50;;
66542;SDS011;53395;37.360;-122.046;2023-07-02T02:13:15;13.50;;;4.65;;
66542;SDS011;53395;37.360;-122.046;2023-07-02T02:15:59;17.23;;;4.53;;
66542;SDS011;53395;37.360;-122.046;2023-07-02T02:18:43;11.63;;;4.40;;
66542;SDS011;53395;37.360;-122.046;2023-07-02T02:21:28;11.50;;;4.45;;
66542;SDS011;53395;37.360;-122.046;2023-07-02T02:24:12;16.10;;;4.88;;
66542;SDS011;53395;37.360;-122.046;2023-07-02T02:26:57;15.45;;;5.00;;
66542;SDS011;53395;37.360;-122.046;2023-07-02T02:29:41;16.17;;;4.88;;
66542;SDS011;53395;37.360;-122.046;2023-07-02T02:35:10;13.45;;;4.47;;
66542;SDS011;53395;37.360;-122.046;2023-07-02T02:37:54;14.23;;;4.20;;
66542;SDS011;53395;37.360;-122.046;2023-07-02T02:40:39;12.05;;;4.22;;
66542;SDS011;53395;37.360;-122.046;2023-07-02T02:43:23;15.10;;;4.57;;
66542;SDS011;53395;37.360;-122.046;2023-07-02T02:46:09;12.50;;;4.15;;
66542;SDS011;53395;37.360;-122.046;2023-07-02T02:48:53;14.48;;;4.57;;
66542;SDS011;53395;37.360;-122.046;2023-07-02T02:51:38;14.05;;;4.63;;
66542;SDS011;53395;37.360;-122.046;2023-07-02T02:54:24;17.55;;;5.05;;
66542;SDS011;53395;37.360;-122.046;2023-07-02T02:57:08;17.75;;;5.15;;
66542;SDS011;53395;37.360;-122.046;2023-07-02T02:59:53;13.50;;;4.65;;
66542;SDS011;53395;37.360;-122.046;2023-07-02T03:02:37;17.73;;;5.03;;
66542;SDS011;53395;37.360;-122.046;2023-07-02T03:05:23;13.60;;;4.80;;
66542;SDS011;53395;37.360;-122.046;2023-07-02T03:08:07;14.88;;;4.47;;
66542;SDS011;53395;37.360;-122.046;2023-07-02T03:10:52;15.90;;;4.22;;
66542;SDS011;53395;37.360;-122.046;2023-07-02T03:13:36;13.50;;;4.18;;
66542;SDS011;53395;37.360;-122.046;2023-07-02T03:16:21;15.27;;;4.20;;
66542;SDS011;53395;37.360;-122.046;2023-07-02T03:19:05;10.55;;;4.07;;
66542;SDS011;53395;37.360;-122.046;2023-07-02T03:21:50;15.07;;;4.05;;
66542;SDS011;53395;37.360;-122.046;2023-07-02T03:24:34;12.70;;;3.90;;
66542;SDS011;53395;37.360;-122.046;2023-07-02T03:27:19;11.55;;;4.05;;
66542;SDS011;53395;37.360;-122.046;2023-07-02T03:30:04;12.65;;;3.78;;
66542;SDS011;53395;37.360;-122.046;2023-07-02T03:32:48;16.42;;;3.97;;
66542;SDS011;53395;37.360;-122.046;2023-07-02T03:35:33;11.98;;;4.00;;
66542;SDS011;53395;37.360;-122.046;2023-07-02T03:38:17;9.82;;;3.53;;
66542;SDS011;53395;37.360;-122.046;2023-07-02T03:41:02;11.75;;;3.83;;
66542;SDS011;53395;37.360;-122.046;2023-07-02T03:43:46;10.77;;;3.97;;
66542;SDS011;53395;37.360;-122.046;2023-07-02T03:46:32;11.32;;;4.25;;
66542;SDS011;53395;37.360;-122.046;2023-07-02T03:49:16;10.88;;;3.40;;
66542;SDS011;53395;37.360;-122.046;2023-07-02T03:52:01;12.65;;;4.03;;
66542;SDS011;53395;37.360;-122.046;2023-07-02T03:54:45;9.77;;;3.83;;
66542;SDS011;53395;37.360;-122.046;2023-07-02T03:57:30;9.60;;;3.78;;
66542;SDS011;53395;37.360;-122.046;2023-07-02T04:00:14;10.77;;;3.95;;
66542;SDS011;53395;37.360;-122.046;2023-07-02T04:02:59;11.13;;;3.92;;
66542;SDS011;53395;37.360;-122.046;2023-07-02T04:05:43;8.50;;;3.35;;
66542;SDS011;53395;37.360;-122.046;2023-07-02T04:08:27;8.93;;;3.67;;
66542;SDS011;53395;37.360;-122.046;2023-07-02T04:11:12;8.82;;;3.38;;
66542;SDS011;53395;37.360;-122.046;2023-07-02T04:13:56;10.18;;;3.50;;
66542;SDS011;53395;37.360;-122.046;2023-07-02T04:16:43;9.40;;;3.42;;
66542;SDS011;53395;37.360;-122.046;2023-07-02T04:19:28;12.00;;;3.45;;
66542;SDS011;53395;37.360;-122.046;2023-07-02T04:22:13;8.55;;;3.45;;
66542;SDS011;53395;37.360;-122.046;2023-07-02T04:24:57;11.35;;;4.18;;
66542;SDS011;53395;37.360;-122.046;2023-07-02T04:27:43;7.55;;;3.65;;
66542;SDS011;53395;37.360;-122.046;2023-07-02T04:33:11;7.75;;;3.50;;
66542;SDS011;53395;37.360;-122.046;2023-07-02T04:35:58;7.50;;;3.58;;
66542;SDS011;53395;37.360;-122.046;2023-07-02T04:38:42;11.25;;;3.60;;
66542;SDS011;53395;37.360;-122.046;2023-07-02T04:41:27;9.63;;;3.72;;
66542;SDS011;53395;37.360;-122.046;2023-07-02T04:46:57;8.45;;;3.63;;
66542;SDS011;53395;37.360;-122.046;2023-07-02T04:49:41;12.60;;;3.75;;
66542;SDS011;53395;37.360;-122.046;2023-07-02T04:52:26;11.55;;;3.80;;
66542;SDS011;53395;37.360;-122.046;2023-07-02T04:55:11;9.98;;;3.85;;
66542;SDS011;53395;37.360;-122.046;2023-07-02T04:57:55;9.60;;;3.45;;
66542;SDS011;53395;37.360;-122.046;2023-07-02T05:00:40;8.35;;;3.72;;
66542;SDS011;53395;37.360;-122.046;2023-07-02T05:03:24;10.68;;;3.70;;
66542;SDS011;53395;37.360;-122.046;2023-07-02T05:06:08;9.85;;;3.90;;
66542;SDS011;53395;37.360;-122.046;2023-07-02T05:08:53;8.70;;;3.53;;
66542;SDS011;53395;37.360;-122.046;2023-07-02T05:11:37;8.43;;;3.72;;
66542;SDS011;53395;37.360;-122.046;2023-07-02T05:14:22;11.23;;;4.10;;
66542;SDS011;53395;37.360;-122.046;2023-07-02T05:17:06;10.48;;;4.32;;
66542;SDS011;53395;37.360;-122.046;2023-07-02T05:19:51;9.27;;;3.78;;
66542;SDS011;53395;37.360;-122.046;2023-07-02T05:22:36;8.50;;;3.42;;
66542;SDS011;53395;37.360;-122.046;2023-07-02T05:25:20;9.00;;;3.88;;
66542;SDS011;53395;37.360;-122.046;2023-07-02T05:28:05;8.85;;;3.78;;
66542;SDS011;53395;37.360;-122.046;2023-07-02T05:30:49;12.32;;;3.92;;
66542;SDS011;53395;37.360;-122.046;2023-07-02T05:33:34;11.70;;;4.97;;
66542;SDS011;53395;37.360;-122.046;2023-07-02T05:36:18;13.50;;;4.93;;
66542;SDS011;53395;37.360;-122.046;2023-07-02T05:39:03;13.48;;;4.88;;
66542;SDS011;53395;37.360;-122.046;2023-07-02T05:41:47;11.52;;;4.63;;
66542;SDS011;53395;37.360;-122.046;2023-07-02T05:44:31;11.25;;;4.85;;
66542;SDS011;53395;37.360;-122.046;2023-07-02T05:47:16;8.73;;;4.15;;
66542;SDS011;53395;37.360;-122.046;2023-07-02T05:50:00;12.55;;;4.80;;
66542;SDS011;53395;37.360;-122.046;2023-07-02T05:52:45;7.30;;;3.40;;
66542;SDS011;53395;37.360;-122.046;2023-07-02T05:55:29;8.82;;;4.32;;
66542;SDS011;53395;37.360;-122.046;2023-07-02T05:58:14;8.30;;;3.72;;
66542;SDS011;53395;37.360;-122.046;2023-07-02T06:00:58;11.40;;;3.92;;
66542;SDS011;53395;37.360;-122.046;2023-07-02T06:03:43;10.68;;;3.83;;
66542;SDS011;53395;37.360;-122.046;2023-07-02T06:06:29;11.40;;;4.20;;
66542;SDS011;53395;37.360;-122.046;2023-07-02T06:09:13;8.35;;;3.78;;
66542;SDS011;53395;37.360;-122.046;2023-07-02T06:11:58;9.75;;;3.75;;
66542;SDS011;53395;37.360;-122.046;2023-07-02T06:14:42;11.82;;;4.40;;
66542;SDS011;53395;37.360;-122.046;2023-07-02T06:17:27;10.25;;;3.80;;
66542;SDS011;53395;37.360;-122.046;2023-07-02T06:22:56;13.20;;;4.65;;
66542;SDS011;53395;37.360;-122.046;2023-07-02T06:25:40;8.95;;;3.85;;
66542;SDS011;53395;37.360;-122.046;2023-07-02T06:28:25;8.20;;;4.07;;
66542;SDS011;53395;37.360;-122.046;2023-07-02T06:31:10;13.73;;;4.40;;
66542;SDS011;53395;37.360;-122.046;2023-07-02T06:33:57;11.55;;;4.22;;
66542;SDS011;53395;37.360;-122.046;2023-07-02T06:36:41;10.82;;;3.97;;
66542;SDS011;53395;37.360;-122.046;2023-07-02T06:39:26;10.00;;;3.78;;
66542;SDS011;53395;37.360;-122.046;2023-07-02T06:42:10;10.40;;;4.55;;
66542;SDS011;53395;37.360;-122.046;2023-07-02T06:44:55;14.35;;;4.47;;
66542;SDS011;53395;37.360;-122.046;2023-07-02T06:47:39;15.18;;;4.50;;
66542;SDS011;53395;37.360;-122.046;2023-07-02T06:50:23;12.60;;;4.47;;
66542;SDS011;53395;37.360;-122.046;2023-07-02T06:53:08;11.60;;;4.18;;
66542;SDS011;53395;37.360;-122.046;2023-07-02T06:55:52;12.27;;;4.47;;
66542;SDS011;53395;37.360;-122.046;2023-07-02T06:58:37;11.45;;;4.15;;
66542;SDS011;53395;37.360;-122.046;2023-07-02T07:01:23;12.93;;;4.38;;
66542;SDS011;53395;37.360;-122.046;2023-07-02T07:04:07;11.52;;;4.68;;
66542;SDS011;53395;37.360;-122.046;2023-07-02T07:06:52;10.45;;;4.13;;
66542;SDS011;53395;37.360;-122.046;2023-07-02T07:09:38;12.82;;;4.75;;
66542;SDS011;53395;37.360;-122.046;2023-07-02T07:12:22;10.95;;;4.43;;
66542;SDS011;53395;37.360;-122.046;2023-07-02T07:15:07;9.63;;;4.40;;
66542;SDS011;53395;37.360;-122.046;2023-07-02T07:17:51;12.18;;;4.22;;
66542;SDS011;53395;37.360;-122.046;2023-07-02T07:20:36;10.70;;;4.43;;
66542;SDS011;53395;37.360;-122.046;2023-07-02T07:23:20;12.93;;;4.70;;
66542;SDS011;53395;37.360;-122.046;2023-07-02T07:26:05;10.68;;;3.95;;
66542;SDS011;53395;37.360;-122.046;2023-07-02T07:28:49;11.57;;;4.43;;
66542;SDS011;53395;37.360;-122.046;2023-07-02T07:31:34;10.35;;;4.25;;
66542;SDS011;53395;37.360;-122.046;2023-07-02T07:34:19;11.20;;;4.70;;
66542;SDS011;53395;37.360;-122.046;2023-07-02T07:37:03;9.55;;;4.35;;
66542;SDS011;53395;37.360;-122.046;2023-07-02T07:39:49;9.80;;;3.92;;
66542;SDS011;53395;37.360;-122.046;2023-07-02T07:42:33;11.20;;;4.60;;
66542;SDS011;53395;37.360;-122.046;2023-07-02T07:45:18;13.48;;;4.53;;
66542;SDS011;53395;37.360;-122.046;2023-07-02T07:48:03;12.63;;;4.45;;
66542;SDS011;53395;37.360;-122.046;2023-07-02T07:50:47;11.00;;;4.28;;
66542;SDS011;53395;37.360;-122.046;2023-07-02T07:53:32;13.85;;;4.35;;
66542;SDS011;53395;37.360;-122.046;2023-07-02T07:56:17;10.73;;;4.20;;
66542;SDS011;53395;37.360;-122.046;2023-07-02T07:59:01;11.38;;;4.18;;
66542;SDS011;53395;37.360;-122.046;2023-07-02T08:04:30;11.43;;;4.28;;
66542;SDS011;53395;37.360;-122.046;2023-07-02T08:07:15;11.30;;;4.18;;
66542;SDS011;53395;37.360;-122.046;2023-07-02T08:09:59;12.10;;;4.65;;
66542;SDS011;53395;37.360;-122.046;2023-07-02T08:15:29;11.93;;;4.07;;
66542;SDS011;53395;37.360;-122.046;2023-07-02T08:18:14;12.15;;;4.50;;
66542;SDS011;53395;37.360;-122.046;2023-07-02T08:20:58;11.20;;;4.20;;
66542;SDS011;53395;37.360;-122.046;2023-07-02T08:23:43;12.23;;;4.57;;
66542;SDS011;53395;37.360;-122.046;2023-07-02T08:29:12;11.68;;;4.25;;
66542;SDS011;53395;37.360;-122.046;2023-07-02T08:31:57;10.43;;;4.53;;
66542;SDS011;53395;37.360;-122.046;2023-07-02T08:34:41;11.88;;;4.72;;
66542;SDS011;53395;37.360;-122.046;2023-07-02T08:37:26;11.18;;;4.30;;
66542;SDS011;53395;37.360;-122.046;2023-07-02T08:40:19;14.77;;;4.88;;
66542;SDS011;53395;37.360;-122.046;2023-07-02T08:43:04;12.73;;;5.13;;
66542;SDS011;53395;37.360;-122.046;2023-07-02T08:45:48;12.75;;;4.60;;
66542;SDS011;53395;37.360;-122.046;2023-07-02T08:48:34;9.18;;;4.50;;
66542;SDS011;53395;37.360;-122.046;2023-07-02T08:51:18;15.43;;;5.13;;
66542;SDS011;53395;37.360;-122.046;2023-07-02T08:54:03;13.15;;;4.47;;
66542;SDS011;53395;37.360;-122.046;2023-07-02T08:56:48;7.88;;;3.75;;
66542;SDS011;53395;37.360;-122.046;2023-07-02T08:59:32;13.55;;;4.68;;
66542;SDS011;53395;37.360;-122.046;2023-07-02T09:02:17;12.65;;;4.43;;
66542;SDS011;53395;37.360;-122.046;2023-07-02T09:05:02;9.27;;;4.20;;
66542;SDS011;53395;37.360;-122.046;2023-07-02T09:07:47;10.98;;;4.75;;
66542;SDS011;53395;37.360;-122.046;2023-07-02T09:10:32;14.18;;;4.18;;
66542;SDS011;53395;37.360;-122.046;2023-07-02T09:13:16;11.65;;;4.75;;
66542;SDS011;53395;37.360;-122.046;2023-07-02T09:16:01;16.88;;;4.97;;
66542;SDS011;53395;37.360;-122.046;2023-07-02T09:18:54;10.38;;;4.45;;
66542;SDS011;53395;37.360;-122.046;2023-07-02T09:24:24;7.45;;;3.60;;
66542;SDS011;53395;37.360;-122.046;2023-07-02T09:27:08;11.70;;;4.40;;
66542;SDS011;53395;37.360;-122.046;2023-07-02T09:29:53;13.38;;;4.32;;
66542;SDS011;53395;37.360;-122.046;2023-07-02T09:32:37;10.73;;;4.13;;
66542;SDS011;53395;37.360;-122.046;2023-07-02T09:35:21;8.68;;;4.28;;
66542;SDS011;53395;37.360;-122.046;2023-07-02T09:38:06;11.85;;;4.28;;
66542;SDS011;53395;37.360;-122.046;2023-07-02T09:40:51;10.23;;;4.35;;
66542;SDS011;53395;37.360;-122.046;2023-07-02T09:43:37;11.55;;;4.18;;
66542;SDS011;53395;37.360;-122.046;2023-07-02T09:46:21;8.07;;;4.32;;
66542;SDS011;53395;37.360;-122.046;2023-07-02T09:49:06;10.07;;;3.80;;
66542;SDS011;53395;37.360;-122.046;2023-07-02T09:51:51;10.15;;;4.05;;
66542;SDS011;53395;37.360;-122.046;2023-07-02T09:54:36;9.20;;;4.50;;
66542;SDS011;53395;37.360;-122.046;2023-07-02T09:57:21;12.38;;;4.35;;
66542;SDS011;53395;37.360;-122.046;2023-07-02T10:00:06;12.57;;;4.95;;
66542;SDS011;53395;37.360;-122.046;2023-07-02T10:02:51;9.23;;;4.32;;
66542;SDS011;53395;37.360;-122.046;2023-07-02T10:05:36;10.77;;;4.25;;
66542;SDS011;53395;37.360;-122.046;2023-07-02T10:08:20;11.55;;;4.18;;
66542;SDS011;53395;37.360;-122.046;2023-07-02T10:11:11;6.75;;;3.45;;
66542;SDS011;53395;37.360;-122.046;2023-07-02T10:13:59;10.68;;;3.97;;
66542;SDS011;53395;37.360;-122.046;2023-07-02T10:16:53;11.60;;;4.40;;
66542;SDS011;53395;37.360;-122.046;2023-07-02T10:19:37;7.03;;;4.03;;
66542;SDS011;53395;37.360;-122.046;2023-07-02T10:22:22;8.70;;;4.05;;
66542;SDS011;53395;37.360;-122.046;2023-07-02T10:25:06;9.95;;;3.95;;
66542;SDS011;53395;37.360;-122.046;2023-07-02T10:27:51;7.22;;;3.83;;
66542;SDS011;53395;37.360;-122.046;2023-07-02T10:30:36;7.55;;;4.18;;
66542;SDS011;53395;37.360;-122.046;2023-07-02T10:33:21;9.25;;;4.28;;
66542;SDS011;53395;37.360;-122.046;2023-07-02T10:36:07;7.80;;;3.92;;
66542;SDS011;53395;37.360;-122.046;2023-07-02T10:39:01;9.38;;;4.28;;
66542;SDS011;53395;37.360;-122.046;2023-07-02T10:41:49;10.98;;;4.10;;
66542;SDS011;53395;37.360;-122.046;2023-07-02T10:44:34;6.35;;;4.07;;
66542;SDS011;53395;37.360;-122.046;2023-07-02T10:47:19;7.32;;;3.88;;
66542;SDS011;53395;37.360;-122.046;2023-07-02T10:50:13;9.20;;;4.15;;
66542;SDS011;53395;37.360;-122.046;2023-07-02T10:52:57;6.07;;;3.90;;
66542;SDS011;53395;37.360;-122.046;2023-07-02T10:55:42;7.38;;;3.70;;
66542;SDS011;53395;37.360;-122.046;2023-07-02T10:58:26;7.47;;;3.95;;
66542;SDS011;53395;37.360;-122.046;2023-07-02T11:01:11;6.65;;;4.00;;
66542;SDS011;53395;37.360;-122.046;2023-07-02T11:03:59;7.00;;;3.92;;
66542;SDS011;53395;37.360;-122.046;2023-07-02T11:06:43;8.02;;;3.45;;
66542;SDS011;53395;37.360;-122.046;2023-07-02T11:09:28;7.65;;;3.78;;
66542;SDS011;53395;37.360;-122.046;2023-07-02T11:12:12;9.20;;;3.88;;
66542;SDS011;53395;37.360;-122.046;2023-07-02T11:15:09;8.35;;;4.45;;
66542;SDS011;53395;37.360;-122.046;2023-07-02T11:17:54;8.68;;;3.88;;
66542;SDS011;53395;37.360;-122.046;2023-07-02T11:20:42;7.65;;;4.00;;
66542;SDS011;53395;37.360;-122.046;2023-07-02T11:23:27;7.03;;;3.95;;
66542;SDS011;53395;37.360;-122.046;2023-07-02T11:26:15;9.15;;;3.90;;
66542;SDS011;53395;37.360;-122.046;2023-07-02T11:28:59;7.18;;;3.58;;
66542;SDS011;53395;37.360;-122.046;2023-07-02T11:31:44;8.05;;;4.28;;
66542;SDS011;53395;37.360;-122.046;2023-07-02T11:34:28;6.20;;;3.95;;
66542;SDS011;53395;37.360;-122.046;2023-07-02T11:37:13;6.32;;;3.65;;
66542;SDS011;53395;37.360;-122.046;2023-07-02T11:39:57;7.85;;;4.05;;
66542;SDS011;53395;37.360;-122.046;2023-07-02T11:42:42;9.52;;;4.15;;
66542;SDS011;53395;37.360;-122.046;2023-07-02T11:45:27;6.85;;;3.83;;
66542;SDS011;53395;37.360;-122.046;2023-07-02T11:48:12;8.38;;;3.90;;
66542;SDS011;53395;37.360;-122.046;2023-07-02T11:50:57;9.35;;;4.05;;
66542;SDS011;53395;37.360;-122.046;2023-07-02T11:53:41;7.80;;;4.00;;
66542;SDS011;53395;37.360;-122.046;2023-07-02T11:56:26;7.25;;;3.70;;
66542;SDS011;53395;37.360;-122.046;2023-07-02T11:59:10;11.23;;;3.67;;
66542;SDS011;53395;37.360;-122.046;2023-07-02T12:01:55;6.57;;;3.67;;
66542;SDS011;53395;37.360;-122.046;2023-07-02T12:04:39;7.03;;;3.58;;
66542;SDS011;53395;37.360;-122.046;2023-07-02T12:07:24;10.52;;;3.80;;
66542;SDS011;53395;37.360;-122.046;2023-07-02T12:10:09;7.70;;;3.97;;
66542;SDS011;53395;37.360;-122.046;2023-07-02T12:12:53;5.43;;;3.53;;
66542;SDS011;53395;37.360;-122.046;2023-07-02T12:15:38;8.32;;;3.40;;
66542;SDS011;53395;37.360;-122.046;2023-07-02T12:18:22;7.07;;;3.33;;
66542;SDS011;53395;37.360;-122.046;2023-07-02T12:21:07;9.05;;;4.10;;
66542;SDS011;53395;37.360;-122.046;2023-07-02T12:23:51;7.47;;;3.80;;
66542;SDS011;53395;37.360;-122.046;2023-07-02T12:26:36;8.15;;;3.28;;
66542;SDS011;53395;37.360;-122.046;2023-07-02T12:29:21;8.48;;;3.53;;
66542;SDS011;53395;37.360;-122.046;2023-07-02T12:32:06;5.07;;;3.40;;
66542;SDS011;53395;37.360;-122.046;2023-07-02T12:34:50;6.70;;;3.78;;
66542;SDS011;53395;37.360;-122.046;2023-07-02T12:37:34;7.82;;;4.18;;
66542;SDS011;53395;37.360;-122.046;2023-07-02T12:40:19;8.50;;;4.05;;
66542;SDS011;53395;37.360;-122.046;2023-07-02T12:43:04;7.60;;;3.50;;
66542;SDS011;53395;37.360;-122.046;2023-07-02T12:45:49;8.25;;;4.18;;
66542;SDS011;53395;37.360;-122.046;2023-07-02T12:48:34;6.97;;;3.60;;
66542;SDS011;53395;37.360;-122.046;2023-07-02T12:51:18;6.32;;;3.63;;
66542;SDS011;53395;37.360;-122.046;2023-07-02T12:54:03;6.18;;;3.45;;
66542;SDS011;53395;37.360;-122.046;2023-07-02T12:56:47;7.45;;;3.72;;
66542;SDS011;53395;37.360;-122.046;2023-07-02T12:59:32;10.55;;;3.78;;
66542;SDS011;53395;37.360;-122.046;2023-07-02T13:02:16;8.07;;;3.65;;
66542;SDS011;53395;37.360;-122.046;2023-07-02T13:05:00;6.53;;;3.53;;
66542;SDS011;53395;37.360;-122.046;2023-07-02T13:07:45;7.25;;;3.70;;
66542;SDS011;53395;37.360;-122.046;2023-07-02T13:10:30;7.95;;;3.95;;
66542;SDS011;53395;37.360;-122.046;2023-07-02T13:13:14;6.85;;;3.47;;
66542;SDS011;53395;37.360;-122.046;2023-07-02T13:15:58;7.57;;;3.80;;
66542;SDS011;53395;37.360;-122.046;2023-07-02T13:18:43;8.27;;;3.75;;
66542;SDS011;53395;37.360;-122.046;2023-07-02T13:21:27;7.15;;;3.33;;
66542;SDS011;53395;37.360;-122.046;2023-07-02T13:24:12;9.63;;;3.92;;
66542;SDS011;53395;37.360;-122.046;2023-07-02T13:26:57;11.65;;;3.97;;
66542;SDS011;53395;37.360;-122.046;2023-07-02T13:29:41;8.73;;;3.60;;
66542;SDS011;53395;37.360;-122.046;2023-07-02T13:32:26;7.78;;;3.88;;
66542;SDS011;53395;37.360;-122.046;2023-07-02T13:35:10;7.90;;;3.55;;
66542;SDS011;53395;37.360;-122.046;2023-07-02T13:37:54;6.18;;;3.63;;
66542;SDS011;53395;37.360;-122.046;2023-07-02T13:40:39;6.35;;;3.50;;
66542;SDS011;53395;37.360;-122.046;2023-07-02T13:43:23;7.25;;;3.60;;
66542;SDS011;53395;37.360;-122.046;2023-07-02T13:46:08;7.32;;;3.90;;
66542;SDS011;53395;37.360;-122.046;2023-07-02T13:48:52;8.02;;;3.80;;
66542;SDS011;53395;37.360;-122.046;2023-07-02T13:51:36;8.73;;;3.65;;
66542;SDS011;53395;37.360;-122.046;2023-07-02T13:54:21;11.57;;;4.47;;
66542;SDS011;53395;37.360;-122.046;2023-07-02T13:57:05;7.78;;;3.67;;
66542;SDS011;53395;37.360;-122.046;2023-07-02T13:59:50;7.43;;;4.05;;
66542;SDS011;53395;37.360;-122.046;2023-07-02T14:02:34;10.48;;;4.00;;
66542;SDS011;53395;37.360;-122.046;2023-07-02T14:05:19;9.20;;;4.13;;
66542;SDS011;53395;37.360;-122.046;2023-07-02T14:08:04;9.73;;;4.20;;
66542;SDS011;53395;37.360;-122.046;2023-07-02T14:10:49;8.27;;;4.57;;
66542;SDS011;53395;37.360;-122.046;2023-07-02T14:13:33;9.90;;;4.68;;
66542;SDS011;53395;37.360;-122.046;2023-07-02T14:16:18;9.93;;;4.75;;
66542;SDS011;53395;37.360;-122.046;2023-07-02T14:19:02;9.23;;;4.30;;
66542;SDS011;53395;37.360;-122.046;2023-07-02T14:21:47;8.73;;;4.20;;
66542;SDS011;53395;37.360;-122.046;2023-07-02T14:24:31;11.02;;;4.55;;
66542;SDS011;53395;37.360;-122.046;2023-07-02T14:27:16;9.38;;;4.07;;
66542;SDS011;53395;37.360;-122.046;2023-07-02T14:30:00;9.90;;;4.45;;
66542;SDS011;53395;37.360;-122.046;2023-07-02T14:32:47;11.73;;;4.85;;
66542;SDS011;53395;37.360;-122.046;2023-07-02T14:35:32;9.05;;;4.03;;
66542;SDS011;53395;37.360;-122.046;2023-07-02T14:38:16;9.65;;;4.65;;
66542;SDS011;53395;37.360;-122.046;2023-07-02T14:41:01;10.57;;;4.60;;
66542;SDS011;53395;37.360;-122.046;2023-07-02T14:43:45;9.18;;;4.30;;
66542;SDS011;53395;37.360;-122.046;2023-07-02T14:46:30;9.45;;;4.35;;
66542;SDS011;53395;37.360;-122.046;2023-07-02T14:49:15;11.18;;;4.93;;
66542;SDS011;53395;37.360;-122.046;2023-07-02T14:51:59;9.02;;;4.57;;
66542;SDS011;53395;37.360;-122.046;2023-07-02T14:54:44;9.93;;;4.45;;
66542;SDS011;53395;37.360;-122.046;2023-07-02T14:57:28;11.68;;;4.38;;
66542;SDS011;53395;37.360;-122.046;2023-07-02T15:00:13;9.30;;;4.97;;
66542;SDS011;53395;37.360;-122.046;2023-07-02T15:02:58;11.18;;;4.57;;
66542;SDS011;53395;37.360;-122.046;2023-07-02T15:05:42;10.18;;;4.72;;
66542;SDS011;53395;37.360;-122.046;2023-07-02T15:08:26;10.27;;;4.68;;
66542;SDS011;53395;37.360;-122.046;2023-07-02T15:11:13;11.70;;;5.18;;
66542;SDS011;53395;37.360;-122.046;2023-07-02T15:16:42;12.05;;;4.72;;
66542;SDS011;53395;37.360;-122.046;2023-07-02T15:19:27;10.73;;;4.82;;
66542;SDS011;53395;37.360;-122.046;2023-07-02T15:22:11;8.38;;;4.35;;
66542;SDS011;53395;37.360;-122.046;2023-07-02T15:24:56;12.38;;;4.88;;
66542;SDS011;53395;37.360;-122.046;2023-07-02T15:27:40;9.55;;;4.68;;
66542;SDS011;53395;37.360;-122.046;2023-07-02T15:30:25;10.25;;;4.10;;
66542;SDS011;53395;37.360;-122.046;2023-07-02T15:33:09;10.15;;;4.60;;
66542;SDS011;53395;37.360;-122.046;2023-07-02T15:35:53;11.80;;;4.85;;
66542;SDS011;53395;37.360;-122.046;2023-07-02T15:38:38;11.05;;;4.68;;
66542;SDS011;53395;37.360;-122.046;2023-07-02T15:41:23;11.85;;;4.72;;
66542;SDS011;53395;37.360;-122.046;2023-07-02T15:44:07;9.98;;;4.95;;
66542;SDS011;53395;37.360;-122.046;2023-07-02T15:46:51;11.25;;;4.50;;
66542;SDS011;53395;37.360;-122.046;2023-07-02T15:49:37;9.98;;;4.60;;
66542;SDS011;53395;37.360;-122.046;2023-07-02T15:52:21;8.38;;;5.00;;
66542;SDS011;53395;37.360;-122.046;2023-07-02T15:55:06;10.98;;;4.75;;
66542;SDS011;53395;37.360;-122.046;2023-07-02T15:57:50;12.25;;;4.35;;
66542;SDS011;53395;37.360;-122.046;2023-07-02T16:00:35;11.52;;;4.32;;
66542;SDS011;53395;37.360;-122.046;2023-07-02T16:03:19;10.70;;;4.68;;
66542;SDS011;53395;37.360;-122.046;2023-07-02T16:06:05;11.48;;;4.07;;
66542;SDS011;53395;37.360;-122.046;2023-07-02T16:08:50;11.25;;;4.90;;
66542;SDS011;53395;37.360;-122.046;2023-07-02T16:11:34;7.95;;;4.35;;
66542;SDS011;53395;37.360;-122.046;2023-07-02T16:14:25;7.78;;;4.00;;
66542;SDS011;53395;37.360;-122.046;2023-07-02T16:17:10;8.85;;;4.65;;
66542;SDS011;53395;37.360;-122.046;2023-07-02T16:19:54;9.48;;;4.93;;
66542;SDS011;53395;37.360;-122.046;2023-07-02T16:22:38;10.93;;;4.65;;
66542;SDS011;53395;37.360;-122.046;2023-07-02T16:25:23;10.57;;;4.85;;
66542;SDS011;53395;37.360;-122.046;2023-07-02T16:28:07;12.13;;;4.88;;
66542;SDS011;53395;37.360;-122.046;2023-07-02T16:30:52;10.88;;;4.38;;
66542;SDS011;53395;37.360;-122.046;2023-07-02T16:33:36;8.85;;;4.90;;
66542;SDS011;53395;37.360;-122.046;2023-07-02T16:36:21;10.30;;;4.55;;
66542;SDS011;53395;37.360;-122.046;2023-07-02T16:39:05;9.25;;;4.10;;